Time;durP1;ratioP1;P1;durP2;ratioP2;P2;SDS_P1;SDS_P2;PMS_P1;PMS_P2;Temp;Humidity;BMP_temperature;BMP_pressure;BME280_temperature;BME280_humidity;BME280_pressure;Samples;Min_cycle;Max_cycle;Signal;HPM_P1;HPM_P2
2022/01/05 00:01:52;;;;;;;23.07;11.90;;;;;;;2.51;100.00;98355.67;1630052;88;21125;-72
2022/01/05 00:04:19;;;;;;;23.18;11.40;;;;;;;2.54;100.00;98345.62;1646905;86;22357;-71
2022/01/05 00:06:46;;;;;;;24.45;11.90;;;;;;;2.54;100.00;98343.02;1630010;88;21085;-71
2022/01/05 00:09:13;;;;;;;22.30;10.00;;;;;;;2.54;100.00;98341.27;1630168;88;21055;-72
2022/01/05 00:11:40;;;;;;;25.65;12.73;;;;;;;2.54;100.00;98338.66;1620422;88;21374;-71
2022/01/05 00:14:07;;;;;;;29.60;13.20;;;;;;;2.56;100.00;98319.98;1630144;88;21109;-71
2022/01/05 00:16:34;;;;;;;25.35;12.45;;;;;;;2.55;100.00;98324.76;1630185;88;21135;-72
2022/01/05 00:19:01;;;;;;;25.20;12.85;;;;;;;2.51;100.00;98305.00;1662522;86;21053;-72
2022/01/05 00:21:27;;;;;;;24.02;11.93;;;;;;;2.51;100.00;98305.00;1629694;87;21583;-72
2022/01/05 00:23:53;;;;;;;24.95;12.15;;;;;;;2.57;100.00;98329.45;1630317;88;21081;-72
2022/01/05 00:26:20;;;;;;;24.15;12.18;;;;;;;2.45;100.00;98300.00;1630227;88;21077;-72
2022/01/05 00:28:47;;;;;;;25.23;12.00;;;;;;;2.62;100.00;98313.28;1662214;86;21877;-72
2022/01/05 00:31:14;;;;;;;24.25;11.33;;;;;;;2.62;100.00;98313.28;1629618;88;21100;-72
2022/01/05 00:33:41;;;;;;;22.75;12.20;;;;;;;2.65;100.00;98302.77;1662041;86;21052;-71
2022/01/05 00:36:09;;;;;;;29.57;12.25;;;;;;;2.66;100.00;98294.06;1662014;86;21045;-71
2022/01/05 00:38:36;;;;;;;23.77;11.93;;;;;;;2.67;100.00;98284.08;1662249;86;21592;-71
2022/01/05 00:41:04;;;;;;;23.00;12.20;;;;;;;2.68;100.00;98276.66;1629751;87;21148;-71
2022/01/05 00:43:32;;;;;;;24.60;12.35;;;;;;;2.69;100.00;98278.38;1657447;86;21119;-71
2022/01/05 00:45:58;;;;;;;24.95;11.75;;;;;;;2.72;100.00;98278.27;1653958;86;21540;-72
2022/01/05 00:48:25;;;;;;;23.83;12.23;;;;;;;2.72;100.00;98260.07;1653898;86;21024;-72
2022/01/05 00:50:51;;;;;;;22.62;11.93;;;;;;;2.76;100.00;98256.05;1653953;86;21139;-73
2022/01/05 00:55:07;;;;;;;24.60;12.60;;;;;;;2.85;100.00;98254.42;1795605;79;23745;-72
2022/01/05 00:57:34;;;;;;;17.15;8.75;;;;;;;2.83;100.00;98248.42;1749017;81;21053;-71
2022/01/05 01:00:00;;;;;;;30.43;13.38;;;;;;;2.82;100.00;98249.34;1749049;82;21481;-72
2022/01/05 01:02:27;;;;;;;25.95;12.93;;;;;;;2.85;100.00;98248.80;1718070;83;21006;-73
2022/01/05 01:04:54;;;;;;;31.40;13.90;;;;;;;2.90;100.00;98244.73;1717469;83;21056;-72
2022/01/05 01:07:20;;;;;;;25.10;12.43;;;;;;;2.93;100.00;98244.61;1717314;82;21139;-73
2022/01/05 01:09:47;;;;;;;25.92;12.82;;;;;;;2.96;100.00;98241.89;1719477;82;21096;-74
2022/01/05 01:12:15;;;;;;;24.75;12.07;;;;;;;2.96;100.00;98226.29;1747353;81;21013;-71
2022/01/05 01:14:42;;;;;;;20.37;11.15;;;;;;;2.99;100.00;98227.50;1747225;82;21581;-71
2022/01/05 01:17:09;;;;;;;20.75;11.05;;;;;;;3.02;100.00;98222.17;1747085;82;21644;-72
2022/01/05 01:19:36;;;;;;;23.62;12.35;;;;;;;3.04;100.00;98219.06;1721259;82;21069;-71
2022/01/05 01:22:03;;;;;;;21.85;11.33;;;;;;;3.06;100.00;98219.86;1717060;83;21672;-71
2022/01/05 01:24:30;;;;;;;20.72;12.45;;;;;;;3.06;100.00;98212.06;1717110;83;21215;-72
2022/01/05 01:26:56;;;;;;;22.32;11.85;;;;;;;3.09;100.00;98209.33;1729145;82;21076;-71
2022/01/05 01:29:23;;;;;;;26.73;12.68;;;;;;;3.11;100.00;98200.19;1727438;82;21053;-71
2022/01/05 01:31:50;;;;;;;25.08;13.08;;;;;;;3.12;100.00;98196.20;1717308;83;21022;-71
2022/01/05 01:34:16;;;;;;;21.02;11.70;;;;;;;3.15;100.00;98199.14;1717392;82;21086;-71
2022/01/05 01:36:43;;;;;;;20.90;12.45;;;;;;;3.19;100.00;98195.52;1717305;83;21819;-69
2022/01/05 01:39:09;;;;;;;26.97;12.30;;;;;;;3.22;100.00;98190.65;1717478;83;21128;-69
2022/01/05 01:41:35;;;;;;;25.02;13.20;;;;;;;3.26;100.00;98187.87;1717316;82;21001;-70
2022/01/05 01:44:02;;;;;;;29.70;13.50;;;;;;;3.30;100.00;98178.21;1717505;82;21051;-70
2022/01/05 01:46:28;;;;;;;28.23;13.15;;;;;;;3.33;100.00;98170.27;1717471;83;21060;-69
2022/01/05 01:48:55;;;;;;;25.70;12.93;;;;;;;3.38;100.00;98161.83;1710966;83;22110;-69
2022/01/05 01:51:22;;;;;;;26.27;12.15;;;;;;;3.41;100.00;98150.02;1702035;84;21059;-71
2022/01/05 01:53:48;;;;;;;24.85;11.30;;;;;;;3.44;100.00;98156.39;1700202;83;21082;-69
2022/01/05 01:56:15;;;;;;;20.43;10.23;;;;;;;3.47;100.00;98145.85;1697288;84;21107;-68
2022/01/05 01:58:45;;;;;;;22.93;11.45;;;;;;;3.48;100.00;98144.96;1707378;82;21085;-70
2022/01/05 02:01:11;;;;;;;26.20;11.63;;;;;;;3.53;100.00;98141.71;1742310;82;21535;-70
2022/01/05 02:03:37;;;;;;;23.22;12.35;;;;;;;3.56;100.00;98135.53;1713298;82;21026;-69
2022/01/05 02:06:04;;;;;;;29.45;11.93;;;;;;;3.58;100.00;98124.14;1741747;82;21061;-70
2022/01/05 02:08:31;;;;;;;17.15;10.88;;;;;;;3.60;100.00;98129.30;1727569;82;21065;-70
2022/01/05 02:10:57;;;;;;;19.80;10.65;;;;;;;3.64;100.00;98126.13;1711837;83;21039;-70
2022/01/05 02:13:24;;;;;;;19.00;10.55;;;;;;;3.67;100.00;98129.91;1735442;82;21104;-70
2022/01/05 02:15:51;;;;;;;20.05;10.98;;;;;;;3.67;100.00;98120.33;1744868;82;21036;-70
2022/01/05 02:18:58;;;;;;;19.32;9.65;;;;;;;3.71;100.00;98122.36;1744847;82;21099;-70
2022/01/05 02:20:58;;;;;;;18.73;9.83;;;;;;;3.71;100.00;98119.77;1740590;82;21056;-71
2022/01/05 02:23:24;;;;;;;22.15;10.00;;;;;;;3.73;100.00;98110.97;1744734;82;21068;-70
2022/01/05 02:25:51;;;;;;;18.87;9.38;;;;;;;3.76;100.00;98102.19;1744450;82;21149;-68
2022/01/05 02:28:18;;;;;;;17.87;9.88;;;;;;;3.75;100.00;98101.34;1741802;82;21081;-69
2022/01/05 02:30:44;;;;;;;16.05;8.35;;;;;;;3.78;100.00;98108.18;1741731;82;21046;-70
2022/01/05 02:33:10;;;;;;;20.12;8.98;;;;;;;3.80;100.00;98107.66;1741493;82;21026;-70
2022/01/05 02:35:37;;;;;;;18.92;9.33;;;;;;;3.83;100.00;98101.02;1741293;82;21041;-69
2022/01/05 02:38:03;;;;;;;15.90;8.80;;;;;;;3.83;100.00;98099.71;1741268;82;21143;-70
2022/01/05 02:40:30;;;;;;;16.95;8.48;;;;;;;3.87;100.00;98097.84;1743193;82;21054;-69
2022/01/05 02:42:57;;;;;;;18.82;9.08;;;;;;;3.87;100.00;98095.23;1742096;82;21022;-69
2022/01/05 02:45:23;;;;;;;18.80;9.63;;;;;;;3.89;100.00;98090.34;1743661;82;21030;-69
2022/01/05 02:47:50;;;;;;;18.30;9.40;;;;;;;3.90;100.00;98082.91;1743522;82;21069;-69
2022/01/05 02:50:16;;;;;;;19.92;9.90;;;;;;;3.93;100.00;98080.20;1743271;82;21224;-66
2022/01/05 02:52:44;;;;;;;18.60;9.08;;;;;;;3.95;100.00;98073.14;1741117;82;21034;-68
2022/01/05 02:55:12;;;;;;;18.35;8.35;;;;;;;3.96;100.00;98070.94;1735596;82;21058;-70
2022/01/05 02:57:39;;;;;;;17.67;9.05;;;;;;;3.98;100.00;98071.73;1732185;82;21074;-69
2022/01/05 03:00:09;;;;;;;15.53;8.38;;;;;;;3.96;100.00;98071.41;1735241;82;21010;-72
2022/01/05 03:02:37;;;;;;;19.17;8.65;;;;;;;4.01;100.00;98073.81;1672579;85;21027;-71
2022/01/05 03:05:06;;;;;;;17.42;9.08;;;;;;;4.02;100.00;98070.28;1672980;85;21057;-70
2022/01/05 03:07:37;;;;;;;16.82;8.90;;;;;;;4.03;100.00;98070.22;1696150;84;21195;-71
2022/01/05 03:10:01;;;;;;;14.25;8.83;;;;;;;4.05;100.00;98077.95;1697351;84;21018;-71
2022/01/05 03:12:29;;;;;;;18.87;9.38;;;;;;;4.06;100.00;98070.55;1698349;84;21086;-72
2022/01/05 03:14:56;;;;;;;16.20;9.25;;;;;;;4.06;100.00;98071.84;1697583;84;21107;-73
2022/01/05 03:17:23;;;;;;;19.17;9.85;;;;;;;4.07;100.00;98071.79;1689485;84;21038;-74
2022/01/05 03:19:49;;;;;;;17.48;9.00;;;;;;;4.10;100.00;98073.41;1670874;85;21077;-73
2022/01/05 03:22:17;;;;;;;23.42;10.75;;;;;;;4.10;100.00;98068.20;1704258;83;21100;-73
2022/01/05 03:24:43;;;;;;;21.97;10.68;;;;;;;4.13;100.00;98070.66;1704867;84;21057;-72
2022/01/05 03:27:10;;;;;;;18.57;10.78;;;;;;;4.12;100.00;98075.03;1718939;82;21521;-71
2022/01/05 03:29:36;;;;;;;20.48;11.10;;;;;;;4.14;100.00;98075.81;1733742;82;21094;-72
2022/01/05 03:32:03;;;;;;;19.82;11.12;;;;;;;4.14;100.00;98069.30;1733644;82;21222;-72
2022/01/05 03:34:31;;;;;;;22.40;11.45;;;;;;;4.15;100.00;98074.05;1733735;82;21070;-73
2022/01/05 03:37:00;;;;;;;25.12;14.05;;;;;;;4.13;100.00;98075.41;1733244;82;21058;-71
2022/01/05 03:39:26;;;;;;;23.62;13.15;;;;;;;4.14;100.00;98079.72;1733793;82;21815;-71
2022/01/05 03:41:53;;;;;;;22.95;12.73;;;;;;;4.16;100.00;98069.22;1733415;82;21521;-71
2022/01/05 03:44:19;;;;;;;26.00;13.95;;;;;;;4.17;100.00;98065.71;1733959;82;21541;-70
2022/01/05 03:46:47;;;;;;;22.45;13.35;;;;;;;4.17;100.00;98077.44;1733192;82;21082;-69
2022/01/05 03:49:14;;;;;;;24.55;14.10;;;;;;;4.16;100.00;98083.11;1733980;82;21795;-69
2022/01/05 03:51:40;;;;;;;26.82;14.33;;;;;;;4.17;100.00;98074.83;1733429;82;21715;-69
2022/01/05 03:54:07;;;;;;;27.75;14.43;;;;;;;4.19;100.00;98080.83;1734702;81;21641;-69
2022/01/05 03:56:34;;;;;;;27.32;14.30;;;;;;;4.20;100.00;98079.44;1741457;81;22113;-69
2022/01/05 03:59:00;;;;;;;25.82;14.40;;;;;;;4.22;100.00;98068.11;1741629;81;21073;-70
2022/01/05 04:01:27;;;;;;;25.00;14.23;;;;;;;4.21;100.00;98060.77;1741545;82;21105;-70
2022/01/05 04:03:53;;;;;;;26.77;13.78;;;;;;;4.20;100.00;98059.05;1741753;82;21189;-66
2022/01/05 04:06:19;;;;;;;24.50;14.47;;;;;;;4.21;100.00;98063.37;1741615;82;21609;-72
2022/01/05 04:08:47;;;;;;;28.55;15.28;;;;;;;4.24;100.00;98059.78;1741771;82;21609;-70
2022/01/05 04:11:13;;;;;;;26.82;15.38;;;;;;;4.26;100.00;98048.38;1741728;82;21081;-71
2022/01/05 04:13:39;;;;;;;24.98;15.95;;;;;;;4.25;100.00;98044.05;1741804;82;21069;-70
2022/01/05 04:16:06;;;;;;;31.55;15.80;;;;;;;4.25;100.00;98040.14;1741921;82;21779;-74
2022/01/05 04:18:33;;;;;;;29.65;16.00;;;;;;;4.26;100.00;98041.86;1741862;82;21069;-74
2022/01/05 04:21:00;;;;;;;29.05;15.53;;;;;;;4.26;100.00;98041.02;1741586;82;21147;-74
2022/01/05 04:23:26;;;;;;;28.23;16.27;;;;;;;4.24;100.00;98031.95;1741672;82;21061;-72
2022/01/05 04:25:53;;;;;;;27.98;16.00;;;;;;;4.24;100.00;98021.53;1741414;82;21054;-72
2022/01/05 04:28:20;;;;;;;24.43;14.18;;;;;;;4.27;100.00;98025.30;1731683;82;21135;-72
2022/01/05 04:30:48;;;;;;;29.70;16.32;;;;;;;4.29;100.00;98027.37;1711810;83;21105;-72
2022/01/05 04:33:14;;;;;;;30.68;16.23;;;;;;;4.31;100.00;98035.97;1712124;83;21049;-71
2022/01/05 04:35:40;;;;;;;26.60;15.25;;;;;;;4.30;100.00;98025.17;1712090;83;21056;-72
2022/01/05 04:38:07;;;;;;;24.57;14.18;;;;;;;4.32;100.00;98032.91;1712088;82;21141;-73
2022/01/05 04:40:34;;;;;;;29.00;14.13;;;;;;;4.34;100.00;98046.25;1718778;82;21110;-67
2022/01/05 04:43:00;;;;;;;28.07;15.15;;;;;;;4.35;100.00;98036.23;1729199;82;21097;-68
2022/01/05 04:45:27;;;;;;;27.82;16.23;;;;;;;4.37;100.00;98034.41;1723543;82;21056;-69
2022/01/05 04:47:54;;;;;;;27.13;14.63;;;;;;;4.39;100.00;98039.09;1714629;82;22170;-68
2022/01/05 04:50:21;;;;;;;22.65;13.98;;;;;;;4.41;100.00;98048.96;1722172;82;21084;-70
2022/01/05 04:52:49;;;;;;;24.30;12.90;;;;;;;4.44;100.00;98048.44;1716887;82;21078;-69
2022/01/05 04:55:16;;;;;;;24.90;13.83;;;;;;;4.47;100.00;98048.32;1718695;83;21038;-70
2022/01/05 04:57:42;;;;;;;25.52;13.50;;;;;;;4.51;100.00;98044.63;1724761;83;21145;-71
2022/01/05 05:00:10;;;;;;;24.20;12.13;;;;;;;4.55;100.00;98060.53;1724532;83;21133;-69
2022/01/05 05:02:38;;;;;;;21.82;11.80;;;;;;;4.57;100.00;98045.66;1724837;83;22168;-72
2022/01/05 05:05:06;;;;;;;21.70;11.85;;;;;;;4.60;100.00;98057.25;1724730;81;21199;-70
2022/01/05 05:07:34;;;;;;;17.55;10.98;;;;;;;4.62;100.00;98057.59;1737170;81;21572;-68
2022/01/05 05:10:01;;;;;;;24.10;11.50;;;;;;;4.63;100.00;98055.83;1738609;81;21088;-70
2022/01/05 05:12:28;;;;;;;24.43;11.48;;;;;;;4.67;100.00;98056.08;1732339;81;21105;-68
2022/01/05 05:14:54;;;;;;;18.65;10.53;;;;;;;4.68;100.00;98049.93;1737846;81;21781;-70
2022/01/05 05:17:22;;;;;;;24.07;11.38;;;;;;;4.69;100.00;98040.34;1733086;81;21053;-71
2022/01/05 05:19:50;;;;;;;19.30;10.80;;;;;;;4.71;100.00;98041.95;1726637;81;21040;-71
2022/01/05 05:22:16;;;;;;;21.70;10.48;;;;;;;4.72;100.00;98039.75;1740920;81;21302;-69
2022/01/05 05:24:43;;;;;;;23.38;11.70;;;;;;;4.74;100.00;98044.44;1737304;81;21060;-68
2022/01/05 05:27:09;;;;;;;17.67;10.70;;;;;;;4.76;100.00;98050.44;1731242;81;21099;-70
2022/01/05 05:29:36;;;;;;;24.80;12.28;;;;;;;4.77;100.00;98041.68;1728432;81;22364;-69
2022/01/05 05:32:03;;;;;;;22.27;12.23;;;;;;;4.79;100.00;98045.06;1740666;81;21052;-69
2022/01/05 05:34:30;;;;;;;26.50;14.38;;;;;;;4.81;100.00;98043.23;1733391;81;21616;-68
2022/01/05 05:36:56;;;;;;;21.87;12.75;;;;;;;4.82;100.00;98052.73;1737373;81;21089;-69
2022/01/05 05:39:23;;;;;;;23.47;12.28;;;;;;;4.87;100.00;98063.41;1690366;84;21594;-70
2022/01/05 05:41:49;;;;;;;23.65;12.35;;;;;;;4.89;100.00;98062.89;1662268;86;21087;-70
2022/01/05 05:44:18;;;;;;;24.43;14.03;;;;;;;4.95;100.00;98065.22;1690611;84;21521;-70
2022/01/05 05:46:44;;;;;;;23.87;13.32;;;;;;;4.98;100.00;98053.33;1662479;86;21055;-70
2022/01/05 05:49:11;;;;;;;25.35;13.53;;;;;;;5.00;100.00;98072.36;1680295;84;21564;-75
2022/01/05 05:51:37;;;;;;;23.02;13.20;;;;;;;5.00;100.00;98066.67;1664868;84;21139;-69
2022/01/05 05:54:04;;;;;;;23.62;11.93;;;;;;;5.03;100.00;98083.95;1690710;84;21520;-68
2022/01/05 05:56:31;;;;;;;21.42;11.75;;;;;;;5.05;100.00;98092.55;1672038;84;21080;-69
2022/01/05 05:58:58;;;;;;;22.77;11.22;;;;;;;5.11;100.00;98097.48;1665569;85;22218;-69
2022/01/05 06:01:24;;;;;;;20.32;10.63;;;;;;;5.15;100.00;98093.79;1719166;82;21117;-70
2022/01/05 06:03:51;;;;;;;19.60;10.08;;;;;;;5.20;100.00;98103.58;1733625;82;21101;-69
2022/01/05 06:06:17;;;;;;;18.77;10.45;;;;;;;5.25;100.00;98104.20;1733421;82;21603;-69
2022/01/05 06:08:43;;;;;;;19.30;10.05;;;;;;;5.30;100.00;98105.28;1731732;82;21050;-69
2022/01/05 06:11:09;;;;;;;19.92;10.23;;;;;;;5.35;100.00;98107.67;1715977;82;21567;-69
2022/01/05 06:13:36;;;;;;;18.52;10.45;;;;;;;5.40;100.00;98095.23;1689456;84;21095;-68
2022/01/05 06:16:03;;;;;;;18.57;10.30;;;;;;;5.43;100.00;98109.00;1688894;84;21149;-70
2022/01/05 06:18:30;;;;;;;21.37;11.83;;;;;;;5.47;100.00;98108.38;1699561;82;21571;-69
2022/01/05 06:20:56;;;;;;;18.05;9.98;;;;;;;5.50;100.00;98113.47;1689861;82;21111;-70
2022/01/05 06:23:23;;;;;;;20.32;10.18;;;;;;;5.56;100.00;98117.06;1700235;82;21121;-69
2022/01/05 06:25:49;;;;;;;18.62;9.98;;;;;;;5.60;100.00;98119.08;1669426;84;21077;-71
2022/01/05 06:28:20;;;;;;;17.20;8.95;;;;;;;5.63;100.00;98118.45;1719273;82;21133;-68
2022/01/05 06:30:47;;;;;;;19.80;10.32;;;;;;;5.65;100.00;98123.14;1684384;84;22070;-70
2022/01/05 06:33:13;;;;;;;16.50;9.60;;;;;;;5.62;100.00;98106.33;1705930;82;21034;-69
2022/01/05 06:35:41;;;;;;;19.35;10.23;;;;;;;5.77;100.00;98128.69;1721256;82;21600;-70
2022/01/05 06:38:13;;;;;;;14.87;9.13;;;;;;;5.81;100.00;98134.15;1724875;82;21017;-70
2022/01/05 06:40:42;;;;;;;15.60;8.33;;;;;;;5.86;100.00;98131.68;1688512;83;21480;-70
2022/01/05 06:43:09;;;;;;;16.40;8.88;;;;;;;5.91;100.00;98127.53;1726988;83;21137;-70
2022/01/05 06:45:36;;;;;;;12.85;7.80;;;;;;;5.96;100.00;98127.33;1726739;83;21385;-71
2022/01/05 06:48:03;;;;;;;14.10;8.35;;;;;;;6.01;100.00;98135.81;1718859;83;21113;-70
2022/01/05 06:50:29;;;;;;;13.88;8.68;;;;;;;6.04;100.00;98137.79;1711790;83;21593;-70
2022/01/05 06:52:56;;;;;;;18.73;8.90;;;;;;;6.08;100.00;98136.72;1725583;81;21067;-69
2022/01/05 06:55:23;;;;;;;12.35;7.45;;;;;;;6.12;100.00;98149.19;1741896;80;21114;-69
2022/01/05 06:57:51;;;;;;;13.13;8.23;;;;;;;6.16;100.00;98152.47;1707926;83;21581;-68
2022/01/05 07:00:18;;;;;;;16.30;8.50;;;;;;;6.21;100.00;98153.08;1718028;81;21117;-68
2022/01/05 07:02:45;;;;;;;16.45;8.40;;;;;;;6.26;100.00;98160.25;1712161;83;21094;-69
2022/01/05 07:05:11;;;;;;;15.53;7.78;;;;;;;6.31;100.00;98162.16;1701443;83;21618;-70
2022/01/05 07:07:38;;;;;;;13.10;7.42;;;;;;;6.36;100.00;98154.92;1709899;83;21244;-69
2022/01/05 07:10:06;;;;;;;12.20;7.05;;;;;;;6.42;100.00;98167.69;1702705;83;21086;-69
2022/01/05 07:12:34;;;;;;;12.45;7.05;;;;;;;6.48;100.00;98158.20;1696047;84;21586;-69
2022/01/05 07:15:01;;;;;;;12.73;6.95;;;;;;;6.54;100.00;98160.13;1696364;84;21094;-69
2022/01/05 07:17:27;;;;;;;11.18;6.60;;;;;;;6.60;100.00;98159.80;1696286;84;21081;-70
2022/01/05 07:19:55;;;;;;;10.93;6.28;;;;;;;6.68;100.00;98157.63;1709647;81;21768;-71
2022/01/05 07:22:21;;;;;;;12.00;6.33;;;;;;;6.73;100.00;98168.69;1701461;81;21355;-71
2022/01/05 07:24:48;;;;;;;12.73;6.47;;;;;;;6.87;100.00;98174.03;1721539;81;21386;-72
2022/01/05 07:27:14;;;;;;;10.45;5.67;;;;;;;6.95;100.00;98176.27;1731357;81;20949;-70
2022/01/05 07:29:41;;;;;;;8.25;5.35;;;;;;;7.05;100.00;98172.68;1760149;80;21081;-69
2022/01/05 07:32:08;;;;;;;10.65;5.70;;;;;;;7.18;100.00;98180.27;1759424;80;21047;-70
2022/01/05 07:34:35;;;;;;;11.43;7.15;;;;;;;7.32;100.00;98182.96;1757507;81;21076;-69
2022/01/05 07:37:03;;;;;;;11.03;5.75;;;;;;;7.43;100.00;98184.12;1757388;81;21048;-70
2022/01/05 07:39:30;;;;;;;8.85;5.50;;;;;;;7.51;100.00;98184.56;1756175;80;21080;-70
2022/01/05 07:41:56;;;;;;;9.65;5.62;;;;;;;7.56;100.00;98177.29;1738999;81;21082;-71
2022/01/05 07:44:23;;;;;;;8.63;5.60;;;;;;;7.64;100.00;98177.72;1719931;83;21888;-70
2022/01/05 07:46:50;;;;;;;9.48;5.72;;;;;;;7.70;100.00;98182.59;1717746;83;21086;-71
2022/01/05 07:49:16;;;;;;;8.88;5.00;;;;;;;7.75;100.00;98171.41;1724947;81;21610;-69
2022/01/05 07:51:42;;;;;;;11.10;6.53;;;;;;;7.84;100.00;98183.59;1727480;81;21119;-69
2022/01/05 07:54:09;;;;;;;11.03;5.30;;;;;;;7.89;100.00;98178.92;1736530;81;21045;-69
2022/01/05 07:56:36;;;;;;;9.85;6.08;;;;;;;7.90;100.00;98183.25;1721072;81;21067;-69
2022/01/05 07:59:02;;;;;;;11.68;6.00;;;;;;;7.92;100.00;98177.46;1730726;81;21622;-70
2022/01/05 08:01:29;;;;;;;10.63;5.92;;;;;;;7.91;100.00;98180.55;1709501;81;21066;-70
2022/01/05 08:03:55;;;;;;;10.60;6.00;;;;;;;7.93;100.00;98192.24;1726583;81;21067;-70
2022/01/05 08:06:22;;;;;;;10.43;5.90;;;;;;;7.94;100.00;98195.26;1727355;81;21044;-71
2022/01/05 08:08:49;;;;;;;8.83;5.72;;;;;;;7.95;100.00;98196.94;1731276;81;21138;-70
2022/01/05 08:11:16;;;;;;;8.70;5.17;;;;;;;7.95;100.00;98196.94;1724610;81;21509;-70
2022/01/05 08:13:43;;;;;;;9.38;5.97;;;;;;;7.96;100.00;98203.88;1747140;81;21094;-71
2022/01/05 08:16:11;;;;;;;9.08;5.40;;;;;;;7.99;100.00;98215.49;1748089;81;21549;-68
2022/01/05 08:18:37;;;;;;;9.18;5.80;;;;;;;7.97;100.00;98223.91;1716050;81;21071;-69
2022/01/05 08:21:03;;;;;;;11.22;6.97;;;;;;;7.99;100.00;98224.67;1720322;81;21114;-70
2022/01/05 08:23:31;;;;;;;9.33;5.92;;;;;;;7.98;100.00;98233.45;1721507;81;21038;-70
2022/01/05 08:25:58;;;;;;;9.93;6.03;;;;;;;8.01;100.00;98241.16;1736221;81;21595;-70
2022/01/05 08:28:24;;;;;;;9.60;6.00;;;;;;;8.02;100.00;98241.52;1716471;81;21114;-71
2022/01/05 08:30:51;;;;;;;11.12;6.03;;;;;;;8.03;100.00;98236.67;1749218;80;21237;-71
2022/01/05 08:33:18;;;;;;;11.25;6.50;;;;;;;8.11;100.00;98234.45;1723796;81;21134;-71
2022/01/05 08:35:44;;;;;;;9.45;6.10;;;;;;;8.32;100.00;98232.83;1740020;81;21122;-70
2022/01/05 08:38:11;;;;;;;12.60;6.55;;;;;;;8.51;100.00;98225.63;1719728;81;21633;-70
2022/01/05 08:40:38;;;;;;;9.20;5.90;;;;;;;8.75;100.00;98221.16;1711563;81;21086;-70
2022/01/05 08:43:06;;;;;;;11.28;5.80;;;;;;;8.90;100.00;98227.25;1716786;81;21137;-70
2022/01/05 08:45:33;;;;;;;10.28;5.85;;;;;;;9.01;100.00;98223.51;1728091;81;22595;-70
2022/01/05 08:48:00;;;;;;;9.15;6.22;;;;;;;9.16;100.00;98225.68;1720510;81;21098;-70
2022/01/05 08:50:29;;;;;;;9.70;5.58;;;;;;;9.30;100.00;98219.09;1703066;83;21087;-70
2022/01/05 08:52:57;;;;;;;11.33;6.53;;;;;;;9.56;100.00;98220.55;1695509;83;21091;-70
2022/01/05 08:55:27;;;;;;;9.95;6.60;;;;;;;10.00;100.00;98217.69;1717912;83;21581;-70
2022/01/05 08:57:55;;;;;;;11.53;6.72;;;;;;;10.48;100.00;98214.59;1726173;83;21783;-70
2022/01/05 09:00:21;;;;;;;11.08;6.50;;;;;;;10.96;100.00;98206.09;1727441;82;21003;-70
2022/01/05 09:02:47;;;;;;;9.10;6.58;;;;;;;11.29;98.78;98210.78;1713550;83;21031;-71
2022/01/05 09:05:14;;;;;;;11.85;7.22;;;;;;;11.54;96.36;98208.09;1722667;83;21247;-71
2022/01/05 09:07:41;;;;;;;10.75;6.80;;;;;;;11.83;95.09;98207.80;1721835;81;21061;-71
2022/01/05 09:10:09;;;;;;;11.25;6.22;;;;;;;12.14;92.47;98213.00;1753204;81;21524;-70
2022/01/05 09:12:35;;;;;;;10.25;6.97;;;;;;;12.34;89.99;98207.56;1735817;81;21125;-71
2022/01/05 09:15:04;;;;;;;10.23;6.90;;;;;;;12.48;90.47;98201.73;1726206;83;21105;-72
2022/01/05 09:17:31;;;;;;;10.55;6.67;;;;;;;12.62;88.25;98206.80;1720984;83;21066;-70
2022/01/05 09:19:57;;;;;;;13.30;7.83;;;;;;;12.86;87.27;98211.16;1726701;83;21117;-70
2022/01/05 09:22:23;;;;;;;10.95;6.75;;;;;;;12.97;84.13;98207.21;1726005;83;22109;-72
2022/01/05 09:24:51;;;;;;;10.38;6.72;;;;;;;13.08;84.39;98213.83;1721581;83;21031;-72
2022/01/05 09:27:19;;;;;;;11.33;6.53;;;;;;;13.26;83.80;98206.27;1715621;83;21113;-72
2022/01/05 09:29:45;;;;;;;9.23;6.22;;;;;;;13.20;81.92;98208.06;1719776;83;22267;-71
2022/01/05 09:32:14;;;;;;;10.15;5.95;;;;;;;13.33;83.11;98215.91;1717203;83;21101;-72
2022/01/05 09:34:41;;;;;;;12.68;6.90;;;;;;;13.71;82.33;98218.16;1724721;83;21247;-71
2022/01/05 09:37:14;;;;;;;10.72;5.85;;;;;;;14.18;80.38;98215.26;1720166;83;21066;-72
2022/01/05 09:42:23;;;;;;;11.93;6.25;;;;;;;15.01;76.24;98227.72;1706256;81;21550;-72
2022/01/05 09:44:49;;;;;;;9.23;6.05;;;;;;;15.25;75.61;98219.48;1721040;83;21089;-71
2022/01/05 09:47:25;;;;;;;9.65;6.03;;;;;;;15.49;66.51;98224.94;1744893;81;21123;-71
2022/01/05 09:50:07;;;;;;;8.55;6.17;;;;;;;15.19;61.51;98220.00;1744633;81;21107;-71
2022/01/05 09:52:35;;;;;;;11.10;5.90;;;;;;;14.81;63.11;98233.37;1716315;81;21073;-71
2022/01/05 09:55:02;;;;;;;8.83;5.40;;;;;;;14.40;62.88;98244.30;1723802;81;21104;-72
2022/01/05 09:57:31;;;;;;;7.17;5.42;;;;;;;13.94;64.47;98246.73;1715038;81;21054;-72
2022/01/05 09:59:59;;;;;;;7.75;5.55;;;;;;;13.66;65.56;98251.22;1733422;81;21121;-72
2022/01/05 10:02:30;;;;;;;11.80;6.35;;;;;;;13.42;66.83;98250.39;1735431;81;21117;-73
2022/01/05 10:04:56;;;;;;;8.88;5.92;;;;;;;13.23;67.74;98261.55;1718367;81;21074;-72
2022/01/05 10:07:24;;;;;;;10.75;7.25;;;;;;;13.20;68.80;98257.83;1747583;81;21052;-72
2022/01/05 10:09:52;;;;;;;10.10;6.45;;;;;;;13.42;69.20;98264.94;1735882;81;21077;-73
2022/01/05 10:12:19;;;;;;;9.63;6.70;;;;;;;13.74;69.93;98272.63;1734429;81;21134;-73
2022/01/05 10:14:47;;;;;;;8.93;5.40;;;;;;;13.98;66.83;98267.99;1652654;84;22932;-73
2022/01/05 10:17:25;;;;;;;8.25;5.30;;;;;;;14.02;66.45;98283.16;1729289;81;21581;-72
2022/01/05 10:19:59;;;;;;;9.70;5.25;;;;;;;13.89;65.65;98276.67;1720369;81;21049;-73
2022/01/05 10:22:35;;;;;;;8.10;5.25;;;;;;;13.67;64.72;98293.43;1726672;81;21082;-71
2022/01/05 10:25:20;;;;;;;7.10;4.53;;;;;;;13.30;65.04;98301.59;1726372;81;21810;-72
2022/01/05 10:28:01;;;;;;;7.37;5.53;;;;;;;12.94;66.17;98302.57;1732966;81;21009;-72
2022/01/05 10:30:39;;;;;;;10.70;6.53;;;;;;;12.55;67.33;98299.32;1743377;80;21069;-73
2022/01/05 10:33:07;;;;;;;8.30;5.70;;;;;;;12.31;69.39;98302.82;1751676;81;21056;-71
2022/01/05 10:35:36;;;;;;;7.53;5.40;;;;;;;12.18;70.81;98308.14;1732676;81;21537;-72
2022/01/05 10:38:08;;;;;;;8.70;5.97;;;;;;;12.13;71.46;98312.08;1730038;80;21151;-71
2022/01/05 10:40:38;;;;;;;7.78;5.28;;;;;;;12.37;71.87;98312.91;1735836;81;21014;-73
2022/01/05 10:43:10;;;;;;;9.08;5.80;;;;;;;12.55;70.69;98311.20;1701759;82;21020;-72
2022/01/05 10:45:45;;;;;;;6.90;4.97;;;;;;;12.83;69.90;98307.82;1707050;82;21098;-72
2022/01/05 10:48:16;;;;;;;6.90;4.67;;;;;;;12.85;67.50;98309.87;1694323;82;21058;-71
2022/01/05 10:50:48;;;;;;;11.18;5.17;;;;;;;13.00;66.96;98312.69;1705649;82;21821;-73
2022/01/05 10:53:21;;;;;;;7.95;4.72;;;;;;;13.32;66.34;98310.70;1682134;82;21030;-71
2022/01/05 10:55:48;;;;;;;7.53;5.00;;;;;;;13.49;64.83;98316.87;1725290;82;21045;-74
2022/01/05 10:58:17;;;;;;;7.72;4.90;;;;;;;13.34;63.62;98315.40;1712376;83;21176;-70
2022/01/05 11:00:52;;;;;;;6.12;4.25;;;;;;;13.10;65.33;98314.98;1696879;82;21680;-71
2022/01/05 11:03:35;;;;;;;6.62;4.22;;;;;;;12.74;64.23;98320.75;1699860;82;21134;-72
2022/01/05 11:06:11;;;;;;;7.58;4.35;;;;;;;12.31;65.64;98321.30;1701994;83;21070;-71
2022/01/05 11:08:59;;;;;;;5.35;3.98;;;;;;;12.02;67.68;98321.24;1705983;83;21071;-72
2022/01/05 11:11:43;;;;;;;6.45;4.05;;;;;;;11.82;69.07;98323.94;1704238;83;21130;-71
2022/01/05 11:14:29;;;;;;;6.33;4.60;;;;;;;11.80;67.73;98321.43;1710649;83;21023;-70
2022/01/05 11:16:59;;;;;;;9.05;4.60;;;;;;;11.85;68.91;98327.70;1711474;82;21959;-71
2022/01/05 11:19:28;;;;;;;6.42;4.33;;;;;;;12.05;66.94;98323.65;1676836;83;21012;-71
2022/01/05 11:22:14;;;;;;;7.28;4.17;;;;;;;12.28;68.46;98318.86;1673215;83;22062;-70
2022/01/05 11:24:48;;;;;;;9.90;4.45;;;;;;;12.55;66.82;98316.48;1712389;83;21141;-70
2022/01/05 11:27:24;;;;;;;9.38;4.85;;;;;;;12.77;66.00;98317.90;1712758;83;21523;-72
2022/01/05 11:29:50;;;;;;;8.78;5.35;;;;;;;12.98;65.64;98323.84;1711013;83;21213;-71
2022/01/05 11:32:20;;;;;;;7.03;4.53;;;;;;;13.05;65.27;98326.39;1709971;82;21281;-71